Time;durP1;ratioP1;P1;durP2;ratioP2;P2;SDS_P1;SDS_P2;PMS_P1;PMS_P2;Temp;Humidity;BMP_temperature;BMP_pressure;BME280_temperature;BME280_humidity;BME280_pressure;Samples;Min_cycle;Max_cycle;Signal;HPM_P1;HPM_P2
2023/09/08 00:00:57;;;;;;;7.67;7.00;;;22.60;68.40;;;;;;5036730;28;20454;-70
2023/09/08 00:03:23;;;;;;;7.27;6.60;;;22.50;68.60;;;;;;5036458;28;20512;-69
2023/09/08 00:05:50;;;;;;;8.57;6.67;;;22.60;69.00;;;;;;5034869;28;20487;-70
2023/09/08 00:08:18;;;;;;;7.90;7.10;;;22.60;69.20;;;;;;5036490;28;20496;-70
2023/09/08 00:10:45;;;;;;;7.33;6.63;;;22.60;69.30;;;;;;5036125;28;20442;-69
2023/09/08 00:13:12;;;;;;;7.67;6.93;;;22.60;69.30;;;;;;5034995;28;20471;-69
2023/09/08 00:15:39;;;;;;;6.80;6.20;;;22.60;69.80;;;;;;5048174;28;20462;-70
2023/09/08 00:18:06;;;;;;;7.20;6.60;;;22.60;70.30;;;;;;5045014;28;20500;-70
2023/09/08 00:20:33;;;;;;;7.70;6.87;;;22.60;70.40;;;;;;5042457;28;20449;-70
2023/09/08 00:22:59;;;;;;;7.73;6.50;;;22.50;70.50;;;;;;5039853;28;20971;-69
2023/09/08 00:25:27;;;;;;;9.60;6.30;;;22.50;70.90;;;;;;5038667;28;21073;-70
2023/09/08 00:27:54;;;;;;;6.60;6.00;;;22.40;71.00;;;;;;5038749;28;20446;-70
2023/09/08 00:30:21;;;;;;;7.77;7.13;;;22.40;71.00;;;;;;5036259;28;20443;-69
2023/09/08 00:32:48;;;;;;;7.37;6.67;;;22.30;70.50;;;;;;5036853;28;20971;-69
2023/09/08 00:35:14;;;;;;;7.20;6.60;;;22.20;70.30;;;;;;5036579;28;20457;-70
2023/09/08 00:37:41;;;;;;;7.07;6.47;;;22.10;70.30;;;;;;5036446;28;20443;-69
2023/09/08 00:40:11;;;;;;;7.30;6.50;;;22.10;70.50;;;;;;5035306;28;20489;-70
2023/09/08 00:42:39;;;;;;;7.47;6.83;;;22.00;70.70;;;;;;5036074;28;20470;-69
2023/09/08 00:45:07;;;;;;;13.83;6.70;;;21.90;70.90;;;;;;5035344;28;20478;-70
2023/09/08 00:47:35;;;;;;;7.73;6.93;;;21.90;71.50;;;;;;5035427;28;20446;-70
2023/09/08 00:50:03;;;;;;;8.63;7.17;;;21.90;71.90;;;;;;5035453;28;20870;-70
2023/09/08 00:52:32;;;;;;;7.87;7.17;;;21.90;71.90;;;;;;5035753;28;20466;-69
2023/09/08 00:54:59;;;;;;;7.80;7.10;;;21.90;71.90;;;;;;5036312;28;20853;-70
2023/09/08 00:57:26;;;;;;;7.27;6.57;;;21.90;72.20;;;;;;5035323;28;20442;-70
2023/09/08 00:59:55;;;;;;;7.43;6.70;;;21.80;72.30;;;;;;5035593;28;20823;-70
2023/09/08 01:02:22;;;;;;;7.77;6.60;;;21.80;72.90;;;;;;5035781;28;20466;-69
2023/09/08 01:04:50;;;;;;;9.43;7.30;;;21.80;73.30;;;;;;5035591;28;20517;-70
2023/09/08 01:07:19;;;;;;;7.20;6.53;;;21.80;73.60;;;;;;5035367;28;20442;-70
2023/09/08 01:09:48;;;;;;;7.00;6.50;;;21.80;73.90;;;;;;5036047;28;20446;-70
2023/09/08 01:12:18;;;;;;;7.60;6.87;;;21.80;74.10;;;;;;5038000;28;20474;-69
2023/09/08 01:14:44;;;;;;;7.23;6.63;;;21.80;74.10;;;;;;5038791;28;20443;-69
2023/09/08 01:17:14;;;;;;;7.57;6.77;;;21.80;74.20;;;;;;5039108;28;20450;-70
2023/09/08 01:19:43;;;;;;;9.20;6.47;;;21.80;74.50;;;;;;5039403;28;20449;-70
2023/09/08 01:22:29;;;;;;;11.27;6.50;;;21.80;74.60;;;;;;5037994;28;20462;-69
2023/09/08 01:25:26;;;;;;;10.40;7.30;;;21.80;74.60;;;;;;5040174;28;20478;-70
2023/09/08 01:27:55;;;;;;;6.07;5.40;;;21.80;74.70;;;;;;5007065;28;20451;-71
2023/09/08 01:30:25;;;;;;;8.00;6.87;;;21.80;75.30;;;;;;5041013;28;20445;-71
2023/09/08 01:32:52;;;;;;;8.07;6.00;;;21.80;75.40;;;;;;5042831;28;20870;-69
2023/09/08 01:35:20;;;;;;;7.40;6.70;;;21.90;76.00;;;;;;5042551;28;20449;-70
2023/09/08 01:37:48;;;;;;;7.20;6.50;;;21.90;75.80;;;;;;5042482;28;20443;-70
2023/09/08 01:40:15;;;;;;;9.57;6.73;;;21.80;75.60;;;;;;5042490;28;20435;-69
2023/09/08 01:42:44;;;;;;;9.80;7.10;;;21.70;75.50;;;;;;5041636;28;21037;-69
2023/09/08 01:45:11;;;;;;;8.27;7.50;;;21.60;75.60;;;;;;5040811;28;20470;-70
2023/09/08 01:47:38;;;;;;;8.20;7.40;;;21.60;75.90;;;;;;5041501;28;20443;-70
2023/09/08 01:50:06;;;;;;;7.63;6.93;;;21.60;76.30;;;;;;5040986;28;20489;-70
2023/09/08 01:52:32;;;;;;;7.97;7.00;;;21.60;76.50;;;;;;5038814;28;20463;-69
2023/09/08 01:55:00;;;;;;;10.07;8.10;;;21.60;76.50;;;;;;5039116;28;20449;-70
2023/09/08 01:57:27;;;;;;;7.53;6.83;;;21.60;76.40;;;;;;5040335;28;20446;-70
2023/09/08 01:59:55;;;;;;;10.10;6.97;;;21.60;76.50;;;;;;5040446;28;20442;-70
2023/09/08 02:02:22;;;;;;;8.90;7.20;;;21.50;76.40;;;;;;5039658;28;20540;-69
2023/09/08 02:04:49;;;;;;;7.73;7.00;;;21.50;76.70;;;;;;5039694;28;20482;-70
2023/09/08 02:07:15;;;;;;;8.13;7.40;;;21.50;76.80;;;;;;5039056;28;20450;-70
2023/09/08 02:09:44;;;;;;;7.93;7.23;;;21.50;76.90;;;;;;5039365;28;20453;-69
2023/09/08 02:12:11;;;;;;;8.60;7.70;;;21.40;76.90;;;;;;5039787;28;20453;-69
2023/09/08 02:14:37;;;;;;;8.77;7.47;;;21.40;77.20;;;;;;5038660;28;20459;-69
2023/09/08 02:17:07;;;;;;;8.93;7.93;;;21.40;77.50;;;;;;5039561;28;20451;-70
2023/09/08 02:19:33;;;;;;;8.70;7.30;;;21.30;77.50;;;;;;5039750;28;20475;-70
2023/09/08 02:22:00;;;;;;;8.43;7.53;;;21.20;77.60;;;;;;5038912;28;20469;-69
2023/09/08 02:24:27;;;;;;;9.63;8.00;;;21.10;77.60;;;;;;5037745;28;20955;-70
2023/09/08 02:26:54;;;;;;;8.67;7.47;;;21.10;77.70;;;;;;5038257;28;20446;-70
2023/09/08 02:29:22;;;;;;;8.20;7.37;;;21.10;77.70;;;;;;5037883;28;20451;-70
2023/09/08 02:31:49;;;;;;;8.10;6.63;;;21.10;77.90;;;;;;5037858;28;20613;-69
2023/09/08 02:34:17;;;;;;;9.70;7.43;;;21.10;78.10;;;;;;5048055;28;20482;-71
2023/09/08 02:36:44;;;;;;;9.30;7.60;;;21.10;78.10;;;;;;5046321;28;20512;-70
2023/09/08 02:39:11;;;;;;;8.60;7.80;;;21.10;78.40;;;;;;5026366;28;20446;-69
2023/09/08 02:41:38;;;;;;;7.97;7.17;;;21.10;78.40;;;;;;5046332;28;21005;-70
2023/09/08 02:44:05;;;;;;;8.10;7.10;;;21.10;78.60;;;;;;5040094;28;20462;-69
2023/09/08 02:46:32;;;;;;;8.37;7.47;;;21.10;79.00;;;;;;5041314;28;20482;-71
2023/09/08 02:48:59;;;;;;;8.10;7.27;;;21.10;79.30;;;;;;5041355;28;20458;-70
2023/09/08 02:51:27;;;;;;;7.80;7.20;;;21.10;79.10;;;;;;5040302;28;20453;-70
2023/09/08 02:53:54;;;;;;;9.13;8.23;;;21.00;79.00;;;;;;5040130;28;20520;-69
2023/09/08 02:56:19;;;;;;;8.90;8.00;;;21.00;79.40;;;;;;5038395;28;20473;-70
2023/09/08 02:58:46;;;;;;;9.43;7.80;;;21.00;79.70;;;;;;5037134;28;20446;-70
2023/09/08 03:01:15;;;;;;;9.00;8.20;;;21.00;79.80;;;;;;5037374;28;20331;-69
2023/09/08 03:03:42;;;;;;;9.77;8.47;;;21.00;80.00;;;;;;5036977;28;20466;-69
2023/09/08 03:06:09;;;;;;;9.00;8.10;;;20.90;80.10;;;;;;5019346;28;20545;-70
2023/09/08 03:08:37;;;;;;;9.27;8.30;;;20.90;80.20;;;;;;5037412;28;20449;-69
2023/09/08 03:11:05;;;;;;;8.70;8.00;;;21.00;80.50;;;;;;5036626;28;20454;-70
2023/09/08 03:13:34;;;;;;;9.87;8.70;;;21.00;80.80;;;;;;5036573;28;20489;-69
2023/09/08 03:16:04;;;;;;;9.03;8.13;;;21.00;81.80;;;;;;5036714;28;20450;-70
2023/09/08 03:18:32;;;;;;;10.37;9.33;;;21.00;80.90;;;;;;5036397;28;20926;-70
2023/09/08 03:20:59;;;;;;;11.53;8.20;;;21.00;80.90;;;;;;5035344;28;20451;-70
2023/09/08 03:23:26;;;;;;;11.67;9.10;;;21.00;81.00;;;;;;5035838;28;20465;-69
2023/09/08 03:25:54;;;;;;;9.30;7.83;;;21.00;81.20;;;;;;5036051;28;20486;-70
2023/09/08 03:28:21;;;;;;;8.90;8.07;;;21.00;81.10;;;;;;5036303;28;20836;-70
2023/09/08 03:30:47;;;;;;;8.73;7.93;;;20.90;81.10;;;;;;5036506;28;20477;-69
2023/09/08 03:33:14;;;;;;;9.67;8.67;;;20.90;81.20;;;;;;5035893;28;20462;-69
2023/09/08 03:35:41;;;;;;;9.77;8.97;;;20.90;81.10;;;;;;5035673;28;20461;-70
2023/09/08 03:38:08;;;;;;;9.90;8.90;;;20.90;81.00;;;;;;5035930;28;20447;-70
2023/09/08 03:40:35;;;;;;;9.00;8.10;;;20.90;81.00;;;;;;5034610;28;20442;-70
2023/09/08 03:43:03;;;;;;;9.33;8.07;;;20.90;80.90;;;;;;5035627;28;20466;-69
2023/09/08 03:45:30;;;;;;;8.53;7.70;;;20.80;80.80;;;;;;5035300;28;20474;-70
2023/09/08 03:47:57;;;;;;;8.43;7.73;;;20.80;80.80;;;;;;5035584;28;20457;-70
2023/09/08 03:50:23;;;;;;;9.37;8.47;;;20.70;81.00;;;;;;5035769;28;20451;-69
2023/09/08 03:52:51;;;;;;;8.90;8.00;;;20.70;81.30;;;;;;5036012;28;20478;-70
2023/09/08 03:55:18;;;;;;;11.13;8.50;;;20.80;81.50;;;;;;5035216;28;20447;-70
2023/09/08 03:57:45;;;;;;;9.37;8.43;;;20.70;81.50;;;;;;5035742;28;20974;-70
2023/09/08 04:00:19;;;;;;;8.90;8.10;;;20.70;81.60;;;;;;5035532;28;20462;-69
2023/09/08 04:02:46;;;;;;;9.60;8.70;;;20.70;81.60;;;;;;5034360;28;20477;-69
2023/09/08 04:05:12;;;;;;;8.60;7.70;;;20.60;81.50;;;;;;5035618;28;20530;-70
2023/09/08 04:07:39;;;;;;;9.57;8.70;;;20.60;81.30;;;;;;5034819;28;20442;-70
2023/09/08 04:10:07;;;;;;;9.47;7.70;;;20.60;81.60;;;;;;5035510;28;20453;-69
2023/09/08 04:12:34;;;;;;;12.70;8.67;;;20.60;81.90;;;;;;5035639;28;20474;-69
2023/09/08 04:15:01;;;;;;;9.20;8.30;;;20.50;81.80;;;;;;5035661;28;20446;-69
2023/09/08 04:17:29;;;;;;;8.73;7.90;;;20.50;81.80;;;;;;5033856;28;20439;-70
2023/09/08 04:19:56;;;;;;;10.40;8.77;;;20.40;81.90;;;;;;5034408;28;20525;-70
2023/09/08 04:22:23;;;;;;;9.20;8.40;;;20.40;82.20;;;;;;5035484;28;20477;-69
2023/09/08 04:24:50;;;;;;;8.90;8.00;;;20.40;82.30;;;;;;5034445;28;20501;-70
2023/09/08 04:27:19;;;;;;;11.63;8.63;;;20.40;82.30;;;;;;5035346;28;20518;-70
2023/09/08 04:29:45;;;;;;;9.27;8.30;;;20.40;82.20;;;;;;5036064;28;20795;-70
2023/09/08 04:32:13;;;;;;;10.20;8.40;;;20.40;82.30;;;;;;5036811;28;20453;-71
2023/09/08 04:34:43;;;;;;;9.97;8.97;;;20.40;82.50;;;;;;5035912;28;20458;-70
2023/09/08 04:37:10;;;;;;;9.33;8.40;;;20.30;82.30;;;;;;5036277;28;20471;-70
2023/09/08 04:39:37;;;;;;;9.67;8.70;;;20.30;82.40;;;;;;5035937;28;20450;-71
2023/09/08 04:42:05;;;;;;;10.43;9.27;;;20.30;82.60;;;;;;5035553;28;20858;-70
2023/09/08 04:44:32;;;;;;;9.70;8.80;;;20.20;82.80;;;;;;5035152;28;20446;-71
2023/09/08 04:46:58;;;;;;;9.70;8.70;;;20.20;83.10;;;;;;5040116;28;20494;-71
2023/09/08 04:49:25;;;;;;;10.77;9.37;;;20.20;83.30;;;;;;5039758;28;20537;-69
2023/09/08 04:51:55;;;;;;;9.73;8.73;;;20.20;83.40;;;;;;5040024;28;20438;-69
2023/09/08 04:54:22;;;;;;;10.67;9.60;;;20.10;83.50;;;;;;5045984;28;20456;-69
2023/09/08 04:56:49;;;;;;;11.90;9.00;;;20.10;83.70;;;;;;5045955;28;20537;-70
2023/09/08 04:59:15;;;;;;;11.23;9.83;;;20.00;84.00;;;;;;5046684;28;20454;-70
2023/09/08 05:01:43;;;;;;;14.33;10.50;;;20.10;84.30;;;;;;5047409;28;20446;-69
2023/09/08 05:04:10;;;;;;;14.20;10.30;;;20.10;84.60;;;;;;5044426;28;20474;-69
2023/09/08 05:06:37;;;;;;;16.57;11.60;;;20.10;84.70;;;;;;5044152;28;20489;-70
2023/09/08 05:09:06;;;;;;;16.00;11.33;;;20.10;84.90;;;;;;5045001;28;20493;-69
2023/09/08 05:11:33;;;;;;;11.30;10.20;;;20.10;85.00;;;;;;5043855;28;20537;-70
2023/09/08 05:14:00;;;;;;;12.30;10.77;;;20.10;85.00;;;;;;5042665;28;20466;-69
2023/09/08 05:16:36;;;;;;;11.77;10.57;;;20.10;85.00;;;;;;5043421;28;20450;-70
2023/09/08 05:19:03;;;;;;;13.33;9.97;;;20.10;85.30;;;;;;5042742;28;20454;-70
2023/09/08 05:21:33;;;;;;;12.60;10.80;;;20.00;85.30;;;;;;5040833;28;20461;-71
2023/09/08 05:24:00;;;;;;;11.70;10.60;;;20.00;85.40;;;;;;5041874;28;20466;-69
2023/09/08 05:26:28;;;;;;;12.20;11.00;;;20.10;85.80;;;;;;5041264;28;20489;-70
2023/09/08 05:28:55;;;;;;;10.97;9.97;;;20.10;86.20;;;;;;5040912;28;20446;-70
2023/09/08 05:31:22;;;;;;;12.03;10.80;;;20.10;86.50;;;;;;5041235;28;20442;-69
2023/09/08 05:33:49;;;;;;;11.17;9.30;;;20.20;86.70;;;;;;5041428;28;20482;-71
2023/09/08 05:36:15;;;;;;;11.17;10.17;;;20.10;86.50;;;;;;5056766;28;20427;-69
2023/09/08 05:38:42;;;;;;;15.10;10.73;;;20.20;86.80;;;;;;5049720;28;20453;-70
2023/09/08 05:41:09;;;;;;;10.87;9.50;;;20.20;87.20;;;;;;5040972;28;20445;-69
2023/09/08 05:43:37;;;;;;;11.57;10.37;;;20.30;87.50;;;;;;5041692;28;20481;-69
2023/09/08 05:46:04;;;;;;;10.67;9.67;;;20.40;87.70;;;;;;5042551;28;20478;-69
2023/09/08 05:48:31;;;;;;;11.80;10.40;;;20.40;87.60;;;;;;5041422;28;20446;-70
2023/09/08 05:50:58;;;;;;;11.70;10.43;;;20.40;87.50;;;;;;5040832;28;20469;-70
2023/09/08 05:53:25;;;;;;;11.83;10.70;;;20.40;87.60;;;;;;5040602;28;20474;-69
2023/09/08 05:55:52;;;;;;;14.00;10.20;;;20.50;87.70;;;;;;5039279;28;20449;-70
2023/09/08 05:58:19;;;;;;;11.50;10.20;;;20.50;87.80;;;;;;5038907;28;20482;-70
2023/09/08 06:00:47;;;;;;;12.47;10.00;;;20.60;88.10;;;;;;5039171;28;20446;-69
2023/09/08 06:03:14;;;;;;;14.33;10.80;;;20.60;88.10;;;;;;5039165;28;20465;-69
2023/09/08 06:05:41;;;;;;;18.40;10.10;;;20.60;88.20;;;;;;5034321;28;20470;-69
2023/09/08 06:08:08;;;;;;;13.27;9.70;;;20.60;88.50;;;;;;5039837;28;20443;-69
2023/09/08 06:10:34;;;;;;;12.90;10.30;;;20.70;88.30;;;;;;5038554;28;20891;-69
2023/09/08 06:13:01;;;;;;;10.37;9.27;;;20.70;88.40;;;;;;5038348;28;20588;-69
2023/09/08 06:15:28;;;;;;;13.63;10.60;;;20.80;88.50;;;;;;5038056;28;20478;-70
2023/09/08 06:17:56;;;;;;;11.63;9.23;;;20.80;88.20;;;;;;5037603;28;20443;-70
2023/09/08 06:20:24;;;;;;;10.30;9.30;;;20.90;88.00;;;;;;5037038;28;20447;-70
2023/09/08 06:22:51;;;;;;;12.03;9.07;;;21.00;88.20;;;;;;5038182;28;20466;-69
2023/09/08 06:25:18;;;;;;;9.23;8.30;;;21.00;88.10;;;;;;5037913;28;20521;-70
2023/09/08 06:27:45;;;;;;;8.50;7.60;;;21.00;87.60;;;;;;5037770;28;20513;-70
2023/09/08 06:30:16;;;;;;;10.07;9.07;;;21.10;87.20;;;;;;5038449;28;20446;-69
2023/09/08 06:32:42;;;;;;;14.20;8.77;;;21.20;87.00;;;;;;5037895;28;20466;-69
2023/09/08 06:35:12;;;;;;;8.50;7.67;;;21.30;86.90;;;;;;5037746;28;20450;-70
2023/09/08 06:37:39;;;;;;;10.10;8.17;;;21.40;86.80;;;;;;5037735;28;20445;-70
2023/09/08 06:40:07;;;;;;;8.10;7.40;;;21.40;86.30;;;;;;5037148;28;20450;-69
2023/09/08 06:42:34;;;;;;;9.53;7.93;;;21.50;85.70;;;;;;5037593;28;20473;-69
2023/09/08 06:45:01;;;;;;;13.30;9.40;;;21.60;85.20;;;;;;5036629;28;20481;-69
2023/09/08 06:47:28;;;;;;;11.03;7.83;;;21.60;84.90;;;;;;5037538;28;20490;-70
2023/09/08 06:49:55;;;;;;;11.07;7.37;;;21.70;85.00;;;;;;5037655;28;20450;-70
2023/09/08 06:52:23;;;;;;;8.37;7.13;;;21.80;84.40;;;;;;5036914;28;20827;-69
2023/09/08 06:54:49;;;;;;;11.03;8.10;;;21.90;83.80;;;;;;5036294;28;20443;-70
2023/09/08 06:57:19;;;;;;;10.60;7.40;;;21.90;83.40;;;;;;5036990;28;20932;-70
2023/09/08 06:59:46;;;;;;;12.10;7.33;;;22.00;82.80;;;;;;5037382;28;20546;-70
2023/09/08 07:02:13;;;;;;;8.90;7.03;;;22.20;82.10;;;;;;5036971;28;20450;-69
2023/09/08 07:04:39;;;;;;;9.30;7.73;;;22.20;82.10;;;;;;5036540;28;20525;-70
2023/09/08 07:07:07;;;;;;;11.37;8.40;;;22.30;81.80;;;;;;5044375;28;20478;-69
2023/09/08 07:09:36;;;;;;;11.83;8.47;;;22.40;81.60;;;;;;5044938;28;20459;-69
2023/09/08 07:12:04;;;;;;;8.97;8.07;;;22.50;81.70;;;;;;5043268;28;20451;-70
2023/09/08 07:14:31;;;;;;;8.30;7.50;;;22.60;81.30;;;;;;5041030;28;20450;-69
2023/09/08 07:16:58;;;;;;;9.33;7.23;;;22.70;80.50;;;;;;5039815;28;20454;-70
2023/09/08 07:19:26;;;;;;;8.67;7.77;;;22.70;79.80;;;;;;5038295;28;20442;-70
2023/09/08 07:21:53;;;;;;;8.30;7.53;;;22.90;79.50;;;;;;5038162;28;20451;-69
2023/09/08 07:24:20;;;;;;;9.07;7.83;;;23.00;78.90;;;;;;5037558;28;20474;-70
2023/09/08 07:26:48;;;;;;;12.07;9.47;;;23.20;78.30;;;;;;5037303;28;20493;-70
2023/09/08 07:29:15;;;;;;;11.03;7.27;;;23.30;77.60;;;;;;5036823;28;20454;-69
2023/09/08 07:31:42;;;;;;;19.40;9.20;;;23.40;77.00;;;;;;5036509;28;20453;-68
2023/09/08 07:34:08;;;;;;;9.07;8.27;;;23.50;76.70;;;;;;5036812;28;20561;-68
2023/09/08 07:36:36;;;;;;;8.67;7.83;;;23.60;76.30;;;;;;5036627;28;20449;-69
2023/09/08 07:39:03;;;;;;;10.83;8.53;;;23.80;75.40;;;;;;5036206;28;20947;-68
2023/09/08 07:41:30;;;;;;;10.63;7.43;;;23.90;74.20;;;;;;5035617;28;20443;-68
2023/09/08 07:43:59;;;;;;;10.17;6.70;;;24.00;73.50;;;;;;5036177;28;20462;-67
2023/09/08 07:46:26;;;;;;;10.07;6.30;;;24.20;72.90;;;;;;5035687;28;20818;-68
2023/09/08 07:48:53;;;;;;;9.47;7.20;;;24.30;72.60;;;;;;5036446;28;20450;-68
2023/09/08 07:51:20;;;;;;;7.60;6.80;;;24.50;71.70;;;;;;5036210;28;20469;-68
2023/09/08 07:53:46;;;;;;;8.13;6.40;;;24.60;71.10;;;;;;5034802;28;20477;-68
2023/09/08 07:56:13;;;;;;;8.32;6.55;;;24.80;70.80;;;;;;5035704;28;20464;-69
2023/09/08 07:58:40;;;;;;;7.93;5.90;;;24.90;69.90;;;;;;5036105;28;20207;-68
2023/09/08 08:01:08;;;;;;;9.90;6.70;;;25.10;69.20;;;;;;5036204;28;20512;-68
2023/09/08 08:03:35;;;;;;;12.77;6.03;;;25.20;68.20;;;;;;5036168;28;20470;-69
2023/09/08 08:06:03;;;;;;;6.57;5.87;;;25.40;67.50;;;;;;5034723;28;20446;-69
2023/09/08 08:08:31;;;;;;;10.20;6.43;;;25.60;66.90;;;;;;5035354;28;20486;-69
2023/09/08 08:10:58;;;;;;;10.40;7.00;;;25.70;66.10;;;;;;5034695;28;20454;-67
2023/09/08 08:13:25;;;;;;;7.23;6.53;;;25.90;65.10;;;;;;5034686;28;20466;-69
2023/09/08 08:15:52;;;;;;;8.53;5.73;;;26.10;63.50;;;;;;5033312;28;20462;-68
2023/09/08 08:18:20;;;;;;;7.30;6.50;;;26.30;62.90;;;;;;5047056;28;20442;-68
2023/09/08 08:20:47;;;;;;;9.47;7.30;;;26.40;62.30;;;;;;5055665;28;20446;-69
2023/09/08 08:23:14;;;;;;;7.63;6.07;;;26.60;61.80;;;;;;5036743;28;20465;-69
2023/09/08 08:25:40;;;;;;;7.43;5.77;;;26.70;59.80;;;;;;5032116;28;20470;-67
2023/09/08 08:28:07;;;;;;;18.50;6.40;;;26.90;59.60;;;;;;5037173;28;20882;-68
2023/09/08 08:30:35;;;;;;;6.63;6.03;;;27.10;59.50;;;;;;5038163;28;20466;-68
2023/09/08 08:33:04;;;;;;;7.00;6.40;;;27.20;59.10;;;;;;5030056;28;20497;-68
2023/09/08 08:35:32;;;;;;;7.73;6.93;;;27.50;58.80;;;;;;5038623;28;20492;-68
2023/09/08 08:38:00;;;;;;;7.40;6.07;;;27.60;58.30;;;;;;5039662;28;20447;-68
2023/09/08 08:40:28;;;;;;;6.80;6.20;;;27.80;57.60;;;;;;5039287;28;20450;-69
2023/09/08 08:42:56;;;;;;;9.10;6.47;;;27.90;56.90;;;;;;5039365;28;20470;-68
2023/09/08 08:45:24;;;;;;;8.60;5.90;;;28.10;56.50;;;;;;5038662;28;20473;-69
2023/09/08 08:47:51;;;;;;;6.63;5.87;;;28.30;56.20;;;;;;5037952;28;20533;-69
2023/09/08 08:50:19;;;;;;;5.80;5.27;;;28.50;55.50;;;;;;5038281;28;20457;-69
2023/09/08 08:52:47;;;;;;;7.47;6.20;;;28.70;54.90;;;;;;5037577;28;20473;-68
2023/09/08 08:55:15;;;;;;;8.03;5.30;;;28.90;54.30;;;;;;5037620;28;20454;-70
2023/09/08 08:57:42;;;;;;;6.20;5.40;;;29.00;52.90;;;;;;5037563;28;20450;-70
2023/09/08 09:00:11;;;;;;;7.57;6.47;;;29.20;52.70;;;;;;5036404;28;20450;-68
2023/09/08 09:02:40;;;;;;;6.23;5.60;;;29.30;51.70;;;;;;5036825;28;20462;-69
2023/09/08 09:05:09;;;;;;;5.87;5.30;;;29.50;51.20;;;;;;5035676;28;20462;-68
2023/09/08 09:07:37;;;;;;;8.00;6.90;;;29.70;51.70;;;;;;5030833;28;20512;-68
2023/09/08 09:10:14;;;;;;;7.77;6.30;;;29.80;50.50;;;;;;5035847;28;20961;-68
2023/09/08 09:12:41;;;;;;;6.20;5.60;;;30.00;50.50;;;;;;5037246;28;20465;-68
2023/09/08 09:15:09;;;;;;;6.77;5.50;;;30.20;50.10;;;;;;5037782;28;20452;-68
2023/09/08 09:17:36;;;;;;;6.43;5.93;;;30.40;49.30;;;;;;5050287;28;20453;-69
2023/09/08 09:20:17;;;;;;;7.23;5.60;;;30.60;49.50;;;;;;5043351;28;20445;-70
2023/09/08 09:22:44;;;;;;;6.50;5.90;;;30.80;48.30;;;;;;5041071;28;20477;-69
2023/09/08 09:25:23;;;;;;;7.03;6.30;;;31.10;48.70;;;;;;5036872;28;20458;-70
2023/09/08 09:27:52;;;;;;;8.40;5.93;;;31.30;47.60;;;;;;5037770;28;20814;-70
2023/09/08 09:30:19;;;;;;;10.43;6.43;;;31.50;46.20;;;;;;5037472;28;20442;-70
2023/09/08 09:32:49;;;;;;;8.47;6.70;;;31.70;46.70;;;;;;5040505;28;20469;-69
2023/09/08 09:35:16;;;;;;;7.97;7.17;;;31.90;44.80;;;;;;5039624;28;20524;-70
2023/09/08 09:37:43;;;;;;;6.97;5.80;;;32.10;45.00;;;;;;5039331;28;20442;-70
2023/09/08 09:40:12;;;;;;;8.90;6.87;;;32.30;44.10;;;;;;5039520;28;20448;-69
2023/09/08 09:42:40;;;;;;;7.13;6.43;;;32.50;42.80;;;;;;5039044;28;20466;-69
2023/09/08 09:45:08;;;;;;;7.97;6.50;;;32.60;43.80;;;;;;5039140;28;20476;-70
2023/09/08 09:47:35;;;;;;;8.10;7.30;;;32.80;44.50;;;;;;5037574;28;20509;-70
2023/09/08 09:50:03;;;;;;;11.50;7.17;;;33.00;43.30;;;;;;5038574;28;20557;-70
2023/09/08 09:52:31;;;;;;;11.70;6.77;;;33.20;41.30;;;;;;5038360;28;20971;-69
2023/09/08 09:54:59;;;;;;;7.57;6.77;;;33.40;41.10;;;;;;5037609;28;20854;-70
2023/09/08 09:57:28;;;;;;;7.70;6.90;;;33.60;41.30;;;;;;5037266;28;20446;-70
2023/09/08 09:59:55;;;;;;;7.50;6.77;;;33.80;40.30;;;;;;5038189;28;20450;-69
2023/09/08 10:02:23;;;;;;;9.20;7.10;;;34.10;40.60;;;;;;5038411;28;20473;-69
2023/09/08 10:04:51;;;;;;;8.03;7.17;;;34.40;40.70;;;;;;5037628;28;20442;-70
2023/09/08 10:07:18;;;;;;;8.13;7.33;;;34.80;40.20;;;;;;5037083;28;20902;-70
2023/09/08 10:09:45;;;;;;;8.10;7.30;;;35.10;39.30;;;;;;5037990;28;20446;-69
2023/09/08 10:12:16;;;;;;;9.30;7.20;;;35.40;38.10;;;;;;5038105;28;20237;-70
2023/09/08 10:14:45;;;;;;;9.40;6.97;;;35.80;37.70;;;;;;5037667;28;20192;-69
2023/09/08 10:17:17;;;;;;;10.20;8.23;;;36.20;37.40;;;;;;5038298;28;20213;-70
2023/09/08 10:19:51;;;;;;;12.35;6.55;;;36.60;35.10;;;;;;5037777;28;20219;-69
2023/09/08 10:22:22;;;;;;;7.68;6.97;;;36.90;33.50;;;;;;5037882;28;20636;-69
2023/09/08 10:24:50;;;;;;;8.48;5.80;;;37.20;32.90;;;;;;5037971;28;20187;-69
2023/09/08 10:27:21;;;;;;;6.90;6.25;;;37.60;32.80;;;;;;5037759;28;20277;-69
2023/09/08 10:29:49;;;;;;;7.43;5.78;;;38.10;32.20;;;;;;5037506;28;20183;-69
2023/09/08 10:32:17;;;;;;;7.38;6.60;;;38.50;30.30;;;;;;5036891;28;20226;-69
2023/09/08 10:34:45;;;;;;;8.93;6.03;;;38.90;30.20;;;;;;5036789;28;20206;-70
2023/09/08 10:37:24;;;;;;;7.35;6.68;;;39.30;29.10;;;;;;5037150;28;20230;-70
2023/09/08 10:39:51;;;;;;;6.68;6.18;;;39.70;28.50;;;;;;5037132;28;20207;-70
2023/09/08 10:42:24;;;;;;;6.47;5.82;;;40.20;29.10;;;;;;5036821;28;20255;-69
2023/09/08 10:45:17;;;;;;;7.93;5.78;;;40.70;28.70;;;;;;5036311;28;20392;-69
2023/09/08 10:47:57;;;;;;;6.25;5.68;;;41.30;28.50;;;;;;5036499;28;20261;-70
2023/09/08 10:50:31;;;;;;;10.88;5.55;;;42.00;28.30;;;;;;5037801;28;20199;-70
2023/09/08 10:53:16;;;;;;;6.55;5.43;;;42.50;27.00;;;;;;5037333;28;20272;-70
2023/09/08 10:55:47;;;;;;;8.10;6.05;;;43.10;26.10;;;;;;5037325;28;20203;-69
2023/09/08 10:58:19;;;;;;;5.97;5.40;;;43.60;25.30;;;;;;5037524;28;20241;-70
2023/09/08 11:00:54;;;;;;;8.90;5.50;;;44.00;23.00;;;;;;5037045;28;20211;-70
2023/09/08 11:03:28;;;;;;;8.25;6.22;;;44.40;22.50;;;;;;5036501;28;20597;-69
2023/09/08 11:05:56;;;;;;;5.68;5.18;;;44.60;22.20;;;;;;5036947;28;20183;-70
2023/09/08 11:08:23;;;;;;;7.18;5.18;;;44.90;22.00;;;;;;5037314;28;20233;-70
2023/09/08 11:10:50;;;;;;;5.47;4.93;;;45.20;22.70;;;;;;5038054;28;20207;-70
2023/09/08 11:13:17;;;;;;;5.47;4.95;;;45.40;23.00;;;;;;5038034;28;20754;-69
2023/09/08 11:15:44;;;;;;;5.30;4.78;;;45.70;22.80;;;;;;5036827;28;20250;-70
2023/09/08 11:18:13;;;;;;;5.97;5.00;;;46.10;22.70;;;;;;5037634;28;20211;-70
2023/09/08 11:20:39;;;;;;;5.80;5.10;;;46.50;22.00;;;;;;5039398;28;20210;-70
2023/09/08 11:23:06;;;;;;;6.00;5.05;;;46.70;21.50;;;;;;5037865;28;20727;-70
2023/09/08 11:25:34;;;;;;;5.10;4.60;;;47.00;21.20;;;;;;5039471;28;20214;-70
2023/09/08 11:28:01;;;;;;;5.25;4.85;;;47.20;20.90;;;;;;5040725;28;20246;-70
2023/09/08 11:30:28;;;;;;;7.95;4.88;;;47.50;20.90;;;;;;5040581;28;20199;-70
2023/09/08 11:32:58;;;;;;;5.20;4.80;;;47.60;20.90;;;;;;5039894;28;20274;-70
2023/09/08 11:35:27;;;;;;;7.63;5.00;;;47.90;20.90;;;;;;5046589;28;20266;-69
2023/09/08 11:37:59;;;;;;;5.65;5.15;;;48.10;20.50;;;;;;5047288;28;20211;-70
2023/09/08 11:40:26;;;;;;;5.60;5.05;;;48.30;19.90;;;;;;5044891;28;20191;-71
2023/09/08 11:42:55;;;;;;;5.38;4.88;;;48.60;19.10;;;;;;5043046;28;20222;-69
2023/09/08 11:45:22;;;;;;;5.10;4.60;;;48.80;19.30;;;;;;5043451;28;20579;-71
2023/09/08 11:47:50;;;;;;;5.22;4.82;;;49.00;19.60;;;;;;5039970;28;20234;-70
2023/09/08 11:50:19;;;;;;;4.88;4.47;;;49.20;19.20;;;;;;5037848;28;20225;-70
2023/09/08 11:52:49;;;;;;;7.53;4.57;;;49.40;19.10;;;;;;5038758;28;20219;-70
2023/09/08 11:55:17;;;;;;;6.55;4.43;;;49.60;19.30;;;;;;5037408;28;20268;-70
2023/09/08 11:57:46;;;;;;;4.72;4.25;;;49.70;19.10;;;;;;5036806;28;20672;-70
2023/09/08 12:00:17;;;;;;;6.00;4.57;;;50.00;18.90;;;;;;5036057;28;20264;-70
2023/09/08 12:02:44;;;;;;;5.65;4.57;;;50.20;18.70;;;;;;5036810;28;20223;-71
2023/09/08 12:05:14;;;;;;;4.57;4.18;;;50.50;18.50;;;;;;5035946;28;20218;-70
2023/09/08 12:07:41;;;;;;;6.32;4.47;;;50.70;18.40;;;;;;5035774;28;20211;-69
2023/09/08 12:10:13;;;;;;;5.38;4.45;;;51.00;18.20;;;;;;5036142;28;20239;-70
2023/09/08 12:12:44;;;;;;;10.18;4.35;;;51.10;17.80;;;;;;5037679;28;20259;-69
2023/09/08 12:15:11;;;;;;;5.40;4.80;;;51.30;17.50;;;;;;5043352;28;20207;-71
2023/09/08 12:17:48;;;;;;;5.47;4.50;;;51.40;17.50;;;;;;5040955;28;20239;-70
2023/09/08 12:20:16;;;;;;;4.75;4.20;;;51.40;17.50;;;;;;5042021;28;20183;-71
2023/09/08 12:22:50;;;;;;;8.50;4.68;;;51.70;17.10;;;;;;5041090;28;20223;-70
2023/09/08 12:25:21;;;;;;;6.03;4.70;;;51.90;17.00;;;;;;5041390;28;20187;-71
2023/09/08 12:27:51;;;;;;;5.20;4.72;;;52.10;17.00;;;;;;5039178;28;20187;-71
2023/09/08 12:30:19;;;;;;;4.70;4.30;;;52.20;17.00;;;;;;5038704;28;20187;-70
2023/09/08 12:32:48;;;;;;;4.57;4.18;;;52.50;16.70;;;;;;5037587;28;20719;-70
2023/09/08 12:35:22;;;;;;;7.50;4.72;;;52.70;15.80;;;;;;5037607;28;20254;-71
2023/09/08 12:37:52;;;;;;;6.80;5.00;;;52.90;15.50;;;;;;5038074;28;20191;-71
2023/09/08 12:40:21;;;;;;;5.22;4.25;;;52.90;15.90;;;;;;5037501;28;20192;-70
2023/09/08 12:42:47;;;;;;;4.65;4.20;;;53.10;16.30;;;;;;5037945;28;20230;-70
2023/09/08 12:45:14;;;;;;;4.50;4.10;;;53.20;16.20;;;;;;5037688;28;20203;-71
2023/09/08 12:47:41;;;;;;;5.07;4.45;;;53.30;15.40;;;;;;5035223;28;20202;-71